Nearby METAR Reports

 

EDNY - Friedrichshafen, Germany
Distance from station: ONO 32km
aktuell: 08.04.2020 20:50
klar
klar
 Wind von varies
Wind: varies 2 km/h
Temperatur: 14°C
Taupunkt: 3°C
Luftfeuchte: 48%
Luftdruck: 1023 hPa
Clouds: klar
Visibility: 10 km
2020/04/08 18:50 EDNY 081850Z AUTO VRB01KT 9999 // NCD 14/03 Q1023
LSZR - Rheineck/Altenrh, Switzerland
Distance from station: OSO 37km
aktuell: 08.04.2020 21:20
klar
klar
 Wind von varies
Wind: varies 4 km/h
Temperatur: 16°C
Taupunkt: 2°C
Luftfeuchte: 39%
Luftdruck: 1023 hPa
Zusammenfassung: klar
Visibility: greater than 10 km
2020/04/08 19:20 LSZR 081920Z AUTO VRB02KT CAVOK 16/02 Q1023
LSMD - Dubendorf, Switzerland
Distance from station: SW 40km
aktuell: 08.04.2020 21:20
klar
klar
 Wind von varies
Wind: varies 4 km/h
Temperatur: 12°C
Taupunkt: 3°C
Luftfeuchte: 54%
Luftdruck: 1023 hPa
Clouds: klar
Visibility: 10 km
2020/04/08 19:20 LSMD 081920Z AUTO VRB02KT 9999NDV NCD 12/03 Q1023 RMK
 
LSZH - Zurich-Kloten (a, Switzerland
Distance from station: WSW 44km
aktuell: 08.04.2020 21:20
klar
klar
 Wind von N
Wind: N 6 km/h
Temperatur: 14°C
Taupunkt: 3°C
Luftfeuchte: 48%
Luftdruck: 1023 hPa
Zusammenfassung: klar
Visibility: greater than 10 km
2020/04/08 19:20 LSZH 081920Z 01003KT CAVOK 14/03 Q1023 NOSIG
LOIH - Hohenems-Dornbir, Austria
Distance from station: OSO 51km
aktuell: 31.10.2016 17:00
NOT Current
geschlossene Wolkendecke
geschlossene Wolkendecke
 Wind von calm
Wind: Windstill
Temperatur: 10°C
Taupunkt: 9°C
Luftfeuchte: 94%
Luftdruck: 1026 hPa
Clouds: geschlossene Wolkendecke
Cloud details: geschlossene Wolkendecke 305 m
2016/10/31 16:00 LOIH 311600Z 00000KT 10KM OVC010ST 10/09 Q1026 RMK OVC
LSME - Emmen, Switzerland
Distance from station: SW 82km
aktuell: 08.04.2020 21:20
klar
klar
 Wind von varies
Wind: varies 2 km/h
Temperatur: 14°C
Taupunkt: 5°C
Luftfeuchte: 55%
Luftdruck: 1023 hPa
Clouds: klar
Visibility: 10 km
2020/04/08 19:20 LSME 081920Z AUTO VRB01KT 9999NDV NCD 14/05 Q1023 RMK
 
LSZC - Buochs, Switzerland
Distance from station: SW 89km
aktuell: 08.04.2020 21:20
klar
klar
 Wind von varies
Wind: varies 7 km/h
Temperatur: 15°C
Taupunkt: 3°C
Luftfeuchte: 45%
Luftdruck: 1024 hPa
Zusammenfassung: klar
Visibility: greater than 10 km
2020/04/08 19:20 LSZC 081920Z AUTO VRB04KT CAVOK 15/03 Q1024
ETHL - Laupheim (ger-Ar, Germany
Distance from station: NO 92km
aktuell: 08.04.2020 20:20
Few Clouds
Few Clouds
 Wind von NO
Wind: NO 7 km/h
Temperatur: 16°C
Taupunkt: 4°C
Luftfeuchte: 45%
Luftdruck: 1022 hPa
Clouds: Few Clouds
Visibility: 10 km
Cloud details: Few Clouds 2134 m
2020/04/08 18:20 ETHL 081820Z 04004KT 9999 FEW070 16/04 Q1022 BLU+BLU+
EDJA - Memmingen Allgau, Germany
Distance from station: ONO 95km
aktuell: 08.04.2020 20:50
klar
klar
 Wind von varies
Wind: varies 4 km/h
Temperatur: 12°C
Taupunkt: 3°C
Luftfeuchte: 54%
Luftdruck: 1023 hPa
Clouds: klar
Visibility: 10 km
2020/04/08 18:50 EDJA 081850Z AUTO VRB02KT 9999 // NCD 12/03 Q1023
 
LSMA - Alpnach, Switzerland
Distance from station: SW 95km
aktuell: 08.04.2020 21:20
klar
klar
 Wind von SW
Wind: SW 6 km/h
Temperatur: 12°C
Taupunkt: 4°C
Luftfeuchte: 58%
Luftdruck: 1024 hPa
Clouds: klar
Visibility: 10 km
2020/04/08 19:20 LSMA 081920Z AUTO 23003KT 190V270 9999NDV NCD 12/04 Q1024 RMK